sensor_id;sensor_type;location;lat;lon;timestamp;P1;durP1;ratioP1;P2;durP2;ratioP2
41653;SDS011;68687;52.030;7.110;2024-02-26T00:00:58;5.68;;;3.70;;
41653;SDS011;68687;52.030;7.110;2024-02-26T00:03:23;7.38;;;4.15;;
41653;SDS011;68687;52.030;7.110;2024-02-26T00:05:48;7.72;;;3.92;;
41653;SDS011;68687;52.030;7.110;2024-02-26T00:08:14;4.40;;;3.10;;
41653;SDS011;68687;52.030;7.110;2024-02-26T00:10:39;7.60;;;4.22;;
41653;SDS011;68687;52.030;7.110;2024-02-26T00:13:04;4.55;;;3.40;;
41653;SDS011;68687;52.030;7.110;2024-02-26T00:15:30;6.30;;;3.60;;
41653;SDS011;68687;52.030;7.110;2024-02-26T00:17:55;5.18;;;3.80;;
41653;SDS011;68687;52.030;7.110;2024-02-26T00:20:20;10.48;;;3.67;;
41653;SDS011;68687;52.030;7.110;2024-02-26T00:22:46;7.70;;;3.60;;
41653;SDS011;68687;52.030;7.110;2024-02-26T00:25:11;5.20;;;2.88;;
41653;SDS011;68687;52.030;7.110;2024-02-26T00:27:37;4.63;;;3.75;;
41653;SDS011;68687;52.030;7.110;2024-02-26T00:30:04;5.13;;;3.47;;
41653;SDS011;68687;52.030;7.110;2024-02-26T00:32:30;5.10;;;3.25;;
41653;SDS011;68687;52.030;7.110;2024-02-26T00:34:55;5.88;;;3.03;;
41653;SDS011;68687;52.030;7.110;2024-02-26T00:37:20;4.90;;;3.25;;
41653;SDS011;68687;52.030;7.110;2024-02-26T00:39:46;6.72;;;3.65;;
41653;SDS011;68687;52.030;7.110;2024-02-26T00:42:11;4.90;;;3.20;;
41653;SDS011;68687;52.030;7.110;2024-02-26T00:44:37;5.15;;;3.10;;
41653;SDS011;68687;52.030;7.110;2024-02-26T00:47:02;5.10;;;3.20;;
41653;SDS011;68687;52.030;7.110;2024-02-26T00:49:28;9.07;;;3.50;;
41653;SDS011;68687;52.030;7.110;2024-02-26T00:51:53;4.90;;;3.85;;
41653;SDS011;68687;52.030;7.110;2024-02-26T00:54:18;7.00;;;3.60;;
41653;SDS011;68687;52.030;7.110;2024-02-26T00:56:44;4.95;;;3.58;;
41653;SDS011;68687;52.030;7.110;2024-02-26T00:59:09;5.80;;;3.78;;
41653;SDS011;68687;52.030;7.110;2024-02-26T01:01:35;4.25;;;3.20;;
41653;SDS011;68687;52.030;7.110;2024-02-26T01:04:00;8.10;;;4.00;;
41653;SDS011;68687;52.030;7.110;2024-02-26T01:06:25;7.78;;;3.60;;
41653;SDS011;68687;52.030;7.110;2024-02-26T01:08:51;4.55;;;3.20;;
41653;SDS011;68687;52.030;7.110;2024-02-26T01:11:16;6.35;;;3.90;;
41653;SDS011;68687;52.030;7.110;2024-02-26T01:13:41;6.05;;;3.03;;
41653;SDS011;68687;52.030;7.110;2024-02-26T01:16:07;4.72;;;2.97;;
41653;SDS011;68687;52.030;7.110;2024-02-26T01:18:32;4.82;;;3.05;;
41653;SDS011;68687;52.030;7.110;2024-02-26T01:20:57;5.57;;;3.22;;
41653;SDS011;68687;52.030;7.110;2024-02-26T01:23:23;3.20;;;2.90;;
41653;SDS011;68687;52.030;7.110;2024-02-26T01:25:48;7.38;;;2.92;;
41653;SDS011;68687;52.030;7.110;2024-02-26T01:28:14;5.22;;;3.47;;
41653;SDS011;68687;52.030;7.110;2024-02-26T01:30:39;5.32;;;3.75;;
41653;SDS011;68687;52.030;7.110;2024-02-26T01:33:04;4.47;;;3.00;;
41653;SDS011;68687;52.030;7.110;2024-02-26T01:35:30;4.32;;;3.05;;
41653;SDS011;68687;52.030;7.110;2024-02-26T01:37:55;3.97;;;2.92;;
41653;SDS011;68687;52.030;7.110;2024-02-26T01:40:21;3.00;;;2.60;;
41653;SDS011;68687;52.030;7.110;2024-02-26T01:42:46;5.70;;;3.30;;
41653;SDS011;68687;52.030;7.110;2024-02-26T01:45:16;8.98;;;2.85;;
41653;SDS011;68687;52.030;7.110;2024-02-26T01:47:50;3.92;;;2.85;;
41653;SDS011;68687;52.030;7.110;2024-02-26T01:50:16;4.60;;;2.55;;
41653;SDS011;68687;52.030;7.110;2024-02-26T01:52:42;3.70;;;2.92;;
41653;SDS011;68687;52.030;7.110;2024-02-26T01:55:08;4.60;;;2.42;;
41653;SDS011;68687;52.030;7.110;2024-02-26T01:57:33;3.47;;;2.33;;
41653;SDS011;68687;52.030;7.110;2024-02-26T01:59:59;3.92;;;2.40;;
41653;SDS011;68687;52.030;7.110;2024-02-26T02:02:24;4.35;;;2.70;;
41653;SDS011;68687;52.030;7.110;2024-02-26T02:04:50;4.93;;;2.17;;
41653;SDS011;68687;52.030;7.110;2024-02-26T02:07:16;7.63;;;2.67;;
41653;SDS011;68687;52.030;7.110;2024-02-26T02:09:43;4.05;;;2.30;;
41653;SDS011;68687;52.030;7.110;2024-02-26T02:12:09;3.20;;;2.20;;
41653;SDS011;68687;52.030;7.110;2024-02-26T02:14:35;4.10;;;2.00;;
41653;SDS011;68687;52.030;7.110;2024-02-26T02:17:01;4.47;;;2.28;;
41653;SDS011;68687;52.030;7.110;2024-02-26T02:19:26;2.08;;;1.67;;
41653;SDS011;68687;52.030;7.110;2024-02-26T02:21:52;2.53;;;1.92;;
41653;SDS011;68687;52.030;7.110;2024-02-26T02:24:17;3.25;;;2.00;;
41653;SDS011;68687;52.030;7.110;2024-02-26T02:26:42;3.83;;;2.10;;
41653;SDS011;68687;52.030;7.110;2024-02-26T02:29:08;6.55;;;3.58;;
41653;SDS011;68687;52.030;7.110;2024-02-26T02:31:34;4.03;;;2.40;;
41653;SDS011;68687;52.030;7.110;2024-02-26T02:33:59;3.67;;;2.85;;
41653;SDS011;68687;52.030;7.110;2024-02-26T02:36:25;4.28;;;2.60;;
41653;SDS011;68687;52.030;7.110;2024-02-26T02:38:51;3.28;;;2.30;;
41653;SDS011;68687;52.030;7.110;2024-02-26T02:41:17;3.63;;;2.30;;
41653;SDS011;68687;52.030;7.110;2024-02-26T02:43:43;4.78;;;2.60;;
41653;SDS011;68687;52.030;7.110;2024-02-26T02:46:08;10.27;;;3.10;;
41653;SDS011;68687;52.030;7.110;2024-02-26T02:48:34;14.77;;;5.32;;
41653;SDS011;68687;52.030;7.110;2024-02-26T02:50:59;6.90;;;3.35;;
41653;SDS011;68687;52.030;7.110;2024-02-26T02:53:24;8.68;;;3.25;;
41653;SDS011;68687;52.030;7.110;2024-02-26T02:55:50;6.65;;;3.28;;
41653;SDS011;68687;52.030;7.110;2024-02-26T02:58:15;4.70;;;2.63;;
41653;SDS011;68687;52.030;7.110;2024-02-26T03:00:41;5.47;;;2.53;;
41653;SDS011;68687;52.030;7.110;2024-02-26T03:03:06;3.60;;;2.47;;
41653;SDS011;68687;52.030;7.110;2024-02-26T03:05:31;3.42;;;2.50;;
41653;SDS011;68687;52.030;7.110;2024-02-26T03:07:57;3.30;;;2.20;;
41653;SDS011;68687;52.030;7.110;2024-02-26T03:10:22;4.07;;;2.30;;
41653;SDS011;68687;52.030;7.110;2024-02-26T03:12:48;3.63;;;2.20;;
41653;SDS011;68687;52.030;7.110;2024-02-26T03:15:13;2.90;;;2.58;;
41653;SDS011;68687;52.030;7.110;2024-02-26T03:17:38;2.65;;;2.00;;
41653;SDS011;68687;52.030;7.110;2024-02-26T03:20:05;4.25;;;2.17;;
41653;SDS011;68687;52.030;7.110;2024-02-26T03:22:33;4.32;;;2.22;;
41653;SDS011;68687;52.030;7.110;2024-02-26T03:24:58;5.63;;;2.65;;
41653;SDS011;68687;52.030;7.110;2024-02-26T03:27:23;5.50;;;2.30;;
41653;SDS011;68687;52.030;7.110;2024-02-26T03:29:48;6.32;;;2.92;;
41653;SDS011;68687;52.030;7.110;2024-02-26T03:32:14;3.42;;;2.67;;
41653;SDS011;68687;52.030;7.110;2024-02-26T03:34:39;5.28;;;2.40;;
41653;SDS011;68687;52.030;7.110;2024-02-26T03:37:05;5.63;;;2.85;;
41653;SDS011;68687;52.030;7.110;2024-02-26T03:39:32;3.70;;;2.60;;
41653;SDS011;68687;52.030;7.110;2024-02-26T03:41:57;4.15;;;2.17;;
41653;SDS011;68687;52.030;7.110;2024-02-26T03:44:23;5.13;;;2.50;;
41653;SDS011;68687;52.030;7.110;2024-02-26T03:46:48;3.65;;;2.60;;
41653;SDS011;68687;52.030;7.110;2024-02-26T03:49:13;4.82;;;3.17;;
41653;SDS011;68687;52.030;7.110;2024-02-26T03:51:39;8.90;;;3.92;;
41653;SDS011;68687;52.030;7.110;2024-02-26T03:54:04;9.38;;;5.82;;
41653;SDS011;68687;52.030;7.110;2024-02-26T03:56:29;10.85;;;3.83;;
41653;SDS011;68687;52.030;7.110;2024-02-26T03:58:55;5.50;;;3.70;;
41653;SDS011;68687;52.030;7.110;2024-02-26T04:01:20;7.15;;;3.47;;
41653;SDS011;68687;52.030;7.110;2024-02-26T04:03:45;3.97;;;3.25;;
41653;SDS011;68687;52.030;7.110;2024-02-26T04:06:11;4.18;;;3.08;;
41653;SDS011;68687;52.030;7.110;2024-02-26T04:08:39;3.50;;;2.80;;
41653;SDS011;68687;52.030;7.110;2024-02-26T04:11:05;5.03;;;3.20;;
41653;SDS011;68687;52.030;7.110;2024-02-26T04:13:32;4.55;;;2.65;;
41653;SDS011;68687;52.030;7.110;2024-02-26T04:15:58;3.63;;;2.50;;
41653;SDS011;68687;52.030;7.110;2024-02-26T04:18:23;4.47;;;3.00;;
41653;SDS011;68687;52.030;7.110;2024-02-26T04:20:49;3.55;;;2.70;;
41653;SDS011;68687;52.030;7.110;2024-02-26T04:23:16;4.70;;;2.50;;
41653;SDS011;68687;52.030;7.110;2024-02-26T04:25:41;4.35;;;3.22;;
41653;SDS011;68687;52.030;7.110;2024-02-26T04:28:07;4.53;;;2.60;;
41653;SDS011;68687;52.030;7.110;2024-02-26T04:30:32;5.20;;;2.65;;
41653;SDS011;68687;52.030;7.110;2024-02-26T04:32:57;7.13;;;2.92;;
41653;SDS011;68687;52.030;7.110;2024-02-26T04:35:23;4.40;;;2.40;;
41653;SDS011;68687;52.030;7.110;2024-02-26T04:37:49;4.07;;;2.92;;
41653;SDS011;68687;52.030;7.110;2024-02-26T04:40:14;3.38;;;2.60;;
41653;SDS011;68687;52.030;7.110;2024-02-26T04:42:40;4.40;;;2.50;;
41653;SDS011;68687;52.030;7.110;2024-02-26T04:45:06;4.18;;;2.50;;
41653;SDS011;68687;52.030;7.110;2024-02-26T04:47:33;3.55;;;2.75;;
41653;SDS011;68687;52.030;7.110;2024-02-26T04:49:59;5.43;;;2.45;;
41653;SDS011;68687;52.030;7.110;2024-02-26T04:52:24;5.22;;;3.25;;
41653;SDS011;68687;52.030;7.110;2024-02-26T04:54:50;5.57;;;2.50;;
41653;SDS011;68687;52.030;7.110;2024-02-26T04:57:15;6.15;;;2.72;;
41653;SDS011;68687;52.030;7.110;2024-02-26T04:59:43;5.72;;;2.53;;
41653;SDS011;68687;52.030;7.110;2024-02-26T05:02:10;5.60;;;3.22;;
41653;SDS011;68687;52.030;7.110;2024-02-26T05:04:35;3.80;;;2.83;;
41653;SDS011;68687;52.030;7.110;2024-02-26T05:07:00;5.05;;;2.90;;
41653;SDS011;68687;52.030;7.110;2024-02-26T05:09:26;4.30;;;2.60;;
41653;SDS011;68687;52.030;7.110;2024-02-26T05:11:51;4.47;;;2.72;;
41653;SDS011;68687;52.030;7.110;2024-02-26T05:14:16;4.22;;;2.85;;
41653;SDS011;68687;52.030;7.110;2024-02-26T05:16:41;3.08;;;2.70;;
41653;SDS011;68687;52.030;7.110;2024-02-26T05:19:07;2.85;;;2.28;;
41653;SDS011;68687;52.030;7.110;2024-02-26T05:21:32;3.67;;;2.55;;
41653;SDS011;68687;52.030;7.110;2024-02-26T05:23:58;5.28;;;3.10;;
41653;SDS011;68687;52.030;7.110;2024-02-26T05:26:24;4.43;;;3.20;;
41653;SDS011;68687;52.030;7.110;2024-02-26T05:28:49;3.53;;;2.63;;
41653;SDS011;68687;52.030;7.110;2024-02-26T05:31:15;5.63;;;2.53;;
41653;SDS011;68687;52.030;7.110;2024-02-26T05:33:41;3.72;;;2.60;;
41653;SDS011;68687;52.030;7.110;2024-02-26T05:36:07;3.15;;;2.80;;
41653;SDS011;68687;52.030;7.110;2024-02-26T05:38:32;3.60;;;2.40;;
41653;SDS011;68687;52.030;7.110;2024-02-26T05:40:58;3.67;;;3.10;;
41653;SDS011;68687;52.030;7.110;2024-02-26T05:43:24;3.20;;;2.30;;
41653;SDS011;68687;52.030;7.110;2024-02-26T05:45:50;9.07;;;3.08;;
41653;SDS011;68687;52.030;7.110;2024-02-26T05:48:15;4.50;;;2.95;;
41653;SDS011;68687;52.030;7.110;2024-02-26T05:50:40;3.78;;;2.83;;
41653;SDS011;68687;52.030;7.110;2024-02-26T05:53:06;4.72;;;2.47;;
41653;SDS011;68687;52.030;7.110;2024-02-26T05:55:31;3.25;;;2.35;;
41653;SDS011;68687;52.030;7.110;2024-02-26T05:57:56;3.30;;;2.38;;
41653;SDS011;68687;52.030;7.110;2024-02-26T06:00:24;5.45;;;3.17;;
41653;SDS011;68687;52.030;7.110;2024-02-26T06:02:53;5.78;;;2.83;;
41653;SDS011;68687;52.030;7.110;2024-02-26T06:05:24;5.55;;;2.67;;
41653;SDS011;68687;52.030;7.110;2024-02-26T06:07:53;3.72;;;2.75;;
41653;SDS011;68687;52.030;7.110;2024-02-26T06:10:18;3.67;;;2.72;;
41653;SDS011;68687;52.030;7.110;2024-02-26T06:12:46;4.13;;;2.95;;
41653;SDS011;68687;52.030;7.110;2024-02-26T06:15:12;7.57;;;3.42;;
41653;SDS011;68687;52.030;7.110;2024-02-26T06:17:40;7.00;;;2.65;;
41653;SDS011;68687;52.030;7.110;2024-02-26T06:20:05;4.20;;;2.70;;
41653;SDS011;68687;52.030;7.110;2024-02-26T06:22:32;5.35;;;2.90;;
41653;SDS011;68687;52.030;7.110;2024-02-26T06:24:57;3.33;;;2.47;;
41653;SDS011;68687;52.030;7.110;2024-02-26T06:27:26;4.53;;;2.72;;
41653;SDS011;68687;52.030;7.110;2024-02-26T06:29:51;4.47;;;2.70;;
41653;SDS011;68687;52.030;7.110;2024-02-26T06:32:16;5.32;;;3.05;;
41653;SDS011;68687;52.030;7.110;2024-02-26T06:34:42;5.07;;;3.17;;
41653;SDS011;68687;52.030;7.110;2024-02-26T06:37:07;8.95;;;4.63;;
41653;SDS011;68687;52.030;7.110;2024-02-26T06:39:33;4.78;;;3.17;;
41653;SDS011;68687;52.030;7.110;2024-02-26T06:41:58;5.03;;;3.50;;
41653;SDS011;68687;52.030;7.110;2024-02-26T06:44:26;4.35;;;3.55;;
41653;SDS011;68687;52.030;7.110;2024-02-26T06:46:57;4.97;;;3.67;;
41653;SDS011;68687;52.030;7.110;2024-02-26T06:49:23;5.15;;;3.33;;
41653;SDS011;68687;52.030;7.110;2024-02-26T06:51:48;5.97;;;4.00;;
41653;SDS011;68687;52.030;7.110;2024-02-26T06:54:14;7.15;;;3.47;;
41653;SDS011;68687;52.030;7.110;2024-02-26T06:56:39;6.72;;;4.82;;
41653;SDS011;68687;52.030;7.110;2024-02-26T06:59:04;4.65;;;3.97;;
41653;SDS011;68687;52.030;7.110;2024-02-26T07:01:30;3.88;;;3.30;;
41653;SDS011;68687;52.030;7.110;2024-02-26T07:03:55;10.38;;;5.38;;
41653;SDS011;68687;52.030;7.110;2024-02-26T07:06:21;6.38;;;4.20;;
41653;SDS011;68687;52.030;7.110;2024-02-26T07:11:20;6.63;;;3.85;;
41653;SDS011;68687;52.030;7.110;2024-02-26T07:13:46;6.07;;;4.70;;
41653;SDS011;68687;52.030;7.110;2024-02-26T07:16:12;5.32;;;4.03;;
41653;SDS011;68687;52.030;7.110;2024-02-26T07:18:38;7.22;;;4.00;;
41653;SDS011;68687;52.030;7.110;2024-02-26T07:21:07;5.63;;;3.65;;
41653;SDS011;68687;52.030;7.110;2024-02-26T07:23:32;4.78;;;3.72;;
41653;SDS011;68687;52.030;7.110;2024-02-26T07:25:58;5.18;;;3.92;;
41653;SDS011;68687;52.030;7.110;2024-02-26T07:28:27;7.90;;;4.93;;
41653;SDS011;68687;52.030;7.110;2024-02-26T07:30:52;7.55;;;4.50;;
41653;SDS011;68687;52.030;7.110;2024-02-26T07:33:17;7.65;;;5.18;;
41653;SDS011;68687;52.030;7.110;2024-02-26T07:35:43;6.53;;;4.90;;
41653;SDS011;68687;52.030;7.110;2024-02-26T07:38:08;6.28;;;4.75;;
41653;SDS011;68687;52.030;7.110;2024-02-26T07:40:33;7.07;;;4.70;;
41653;SDS011;68687;52.030;7.110;2024-02-26T07:42:59;6.85;;;4.28;;
41653;SDS011;68687;52.030;7.110;2024-02-26T07:45:24;10.23;;;5.05;;
41653;SDS011;68687;52.030;7.110;2024-02-26T07:47:49;7.45;;;5.50;;
41653;SDS011;68687;52.030;7.110;2024-02-26T07:50:16;5.47;;;4.13;;
41653;SDS011;68687;52.030;7.110;2024-02-26T07:52:45;7.80;;;5.25;;
41653;SDS011;68687;52.030;7.110;2024-02-26T07:55:11;6.15;;;4.53;;
41653;SDS011;68687;52.030;7.110;2024-02-26T07:57:36;6.53;;;4.80;;
41653;SDS011;68687;52.030;7.110;2024-02-26T08:00:04;6.20;;;4.63;;
41653;SDS011;68687;52.030;7.110;2024-02-26T08:02:34;8.25;;;5.00;;
41653;SDS011;68687;52.030;7.110;2024-02-26T08:04:59;7.22;;;4.68;;
41653;SDS011;68687;52.030;7.110;2024-02-26T08:07:25;8.93;;;4.95;;
41653;SDS011;68687;52.030;7.110;2024-02-26T08:12:46;6.45;;;3.83;;
41653;SDS011;68687;52.030;7.110;2024-02-26T08:15:11;6.18;;;4.45;;
41653;SDS011;68687;52.030;7.110;2024-02-26T08:17:37;7.90;;;4.50;;
41653;SDS011;68687;52.030;7.110;2024-02-26T08:20:02;9.40;;;4.80;;
41653;SDS011;68687;52.030;7.110;2024-02-26T08:22:31;5.30;;;3.83;;
41653;SDS011;68687;52.030;7.110;2024-02-26T08:24:56;7.68;;;4.70;;
41653;SDS011;68687;52.030;7.110;2024-02-26T08:27:25;6.68;;;4.60;;
41653;SDS011;68687;52.030;7.110;2024-02-26T08:29:50;9.23;;;4.72;;
41653;SDS011;68687;52.030;7.110;2024-02-26T08:32:15;7.03;;;3.95;;
41653;SDS011;68687;52.030;7.110;2024-02-26T08:34:41;5.28;;;3.65;;
41653;SDS011;68687;52.030;7.110;2024-02-26T08:37:07;7.13;;;4.30;;
41653;SDS011;68687;52.030;7.110;2024-02-26T08:39:32;6.78;;;4.07;;
41653;SDS011;68687;52.030;7.110;2024-02-26T08:41:57;5.45;;;3.97;;
41653;SDS011;68687;52.030;7.110;2024-02-26T08:44:23;6.28;;;4.40;;
41653;SDS011;68687;52.030;7.110;2024-02-26T08:46:48;11.98;;;4.78;;
41653;SDS011;68687;52.030;7.110;2024-02-26T08:49:15;6.15;;;3.72;;
41653;SDS011;68687;52.030;7.110;2024-02-26T08:51:41;8.05;;;4.90;;
41653;SDS011;68687;52.030;7.110;2024-02-26T08:54:08;8.75;;;4.35;;
41653;SDS011;68687;52.030;7.110;2024-02-26T08:56:34;10.48;;;6.55;;
41653;SDS011;68687;52.030;7.110;2024-02-26T08:59:02;8.35;;;5.10;;
41653;SDS011;68687;52.030;7.110;2024-02-26T09:01:31;12.43;;;6.72;;
41653;SDS011;68687;52.030;7.110;2024-02-26T09:03:57;6.32;;;4.07;;
41653;SDS011;68687;52.030;7.110;2024-02-26T09:06:23;7.85;;;4.70;;
41653;SDS011;68687;52.030;7.110;2024-02-26T09:08:48;10.20;;;5.32;;
41653;SDS011;68687;52.030;7.110;2024-02-26T09:11:13;7.25;;;5.32;;
41653;SDS011;68687;52.030;7.110;2024-02-26T09:13:39;6.25;;;4.28;;
41653;SDS011;68687;52.030;7.110;2024-02-26T09:16:13;5.95;;;4.50;;
41653;SDS011;68687;52.030;7.110;2024-02-26T09:18:42;9.38;;;4.97;;
41653;SDS011;68687;52.030;7.110;2024-02-26T09:21:10;9.18;;;4.72;;
41653;SDS011;68687;52.030;7.110;2024-02-26T09:23:35;6.47;;;4.70;;
41653;SDS011;68687;52.030;7.110;2024-02-26T09:26:01;9.82;;;5.35;;
41653;SDS011;68687;52.030;7.110;2024-02-26T09:28:27;7.93;;;5.38;;
41653;SDS011;68687;52.030;7.110;2024-02-26T09:30:52;9.30;;;5.72;;
41653;SDS011;68687;52.030;7.110;2024-02-26T09:33:18;8.00;;;5.72;;
41653;SDS011;68687;52.030;7.110;2024-02-26T09:35:44;8.52;;;5.47;;
41653;SDS011;68687;52.030;7.110;2024-02-26T09:38:12;10.02;;;5.93;;
41653;SDS011;68687;52.030;7.110;2024-02-26T09:40:39;9.70;;;6.22;;
41653;SDS011;68687;52.030;7.110;2024-02-26T09:43:04;9.70;;;6.38;;
41653;SDS011;68687;52.030;7.110;2024-02-26T09:45:30;10.15;;;5.80;;
41653;SDS011;68687;52.030;7.110;2024-02-26T09:47:57;10.45;;;5.28;;
41653;SDS011;68687;52.030;7.110;2024-02-26T09:50:23;9.52;;;6.25;;
41653;SDS011;68687;52.030;7.110;2024-02-26T09:52:55;9.93;;;6.13;;
41653;SDS011;68687;52.030;7.110;2024-02-26T09:55:27;10.10;;;6.60;;
41653;SDS011;68687;52.030;7.110;2024-02-26T09:57:53;11.95;;;6.43;;
41653;SDS011;68687;52.030;7.110;2024-02-26T10:00:19;10.95;;;6.07;;
41653;SDS011;68687;52.030;7.110;2024-02-26T10:02:47;9.07;;;5.95;;
41653;SDS011;68687;52.030;7.110;2024-02-26T10:05:14;11.82;;;6.40;;
41653;SDS011;68687;52.030;7.110;2024-02-26T10:07:42;8.80;;;5.75;;
41653;SDS011;68687;52.030;7.110;2024-02-26T10:10:12;10.13;;;6.28;;
41653;SDS011;68687;52.030;7.110;2024-02-26T10:12:39;10.82;;;6.93;;
41653;SDS011;68687;52.030;7.110;2024-02-26T10:15:10;10.05;;;6.82;;
41653;SDS011;68687;52.030;7.110;2024-02-26T10:17:36;8.52;;;6.22;;
41653;SDS011;68687;52.030;7.110;2024-02-26T10:20:12;13.07;;;7.95;;
41653;SDS011;68687;52.030;7.110;2024-02-26T10:22:42;10.15;;;6.95;;
41653;SDS011;68687;52.030;7.110;2024-02-26T10:25:08;10.25;;;6.90;;
41653;SDS011;68687;52.030;7.110;2024-02-26T10:27:34;9.75;;;7.00;;
41653;SDS011;68687;52.030;7.110;2024-02-26T10:30:42;10.68;;;7.43;;
41653;SDS011;68687;52.030;7.110;2024-02-26T10:36:12;12.07;;;7.15;;
41653;SDS011;68687;52.030;7.110;2024-02-26T10:38:37;11.25;;;6.88;;
41653;SDS011;68687;52.030;7.110;2024-02-26T10:41:03;12.85;;;7.43;;
41653;SDS011;68687;52.030;7.110;2024-02-26T10:43:33;12.63;;;8.02;;
41653;SDS011;68687;52.030;7.110;2024-02-26T10:45:58;10.55;;;7.22;;
41653;SDS011;68687;52.030;7.110;2024-02-26T10:48:24;12.02;;;6.38;;
41653;SDS011;68687;52.030;7.110;2024-02-26T10:50:49;12.20;;;6.47;;
41653;SDS011;68687;52.030;7.110;2024-02-26T10:53:21;10.85;;;7.45;;
41653;SDS011;68687;52.030;7.110;2024-02-26T10:56:08;13.43;;;7.00;;
41653;SDS011;68687;52.030;7.110;2024-02-26T10:58:35;10.00;;;7.00;;
41653;SDS011;68687;52.030;7.110;2024-02-26T11:01:01;11.35;;;6.18;;
41653;SDS011;68687;52.030;7.110;2024-02-26T11:03:26;10.48;;;6.57;;
41653;SDS011;68687;52.030;7.110;2024-02-26T11:05:57;15.15;;;7.50;;
41653;SDS011;68687;52.030;7.110;2024-02-26T11:08:23;10.02;;;6.57;;
41653;SDS011;68687;52.030;7.110;2024-02-26T11:10:50;10.65;;;6.15;;
41653;SDS011;68687;52.030;7.110;2024-02-26T11:13:18;7.88;;;5.45;;
41653;SDS011;68687;52.030;7.110;2024-02-26T11:15:46;9.05;;;5.70;;
41653;SDS011;68687;52.030;7.110;2024-02-26T11:18:15;9.52;;;5.82;;
41653;SDS011;68687;52.030;7.110;2024-02-26T11:20:41;7.68;;;5.45;;
41653;SDS011;68687;52.030;7.110;2024-02-26T11:23:08;11.35;;;5.97;;
41653;SDS011;68687;52.030;7.110;2024-02-26T11:25:34;12.07;;;5.90;;
41653;SDS011;68687;52.030;7.110;2024-02-26T11:28:02;10.15;;;5.20;;
41653;SDS011;68687;52.030;7.110;2024-02-26T11:30:31;8.65;;;5.80;;
41653;SDS011;68687;52.030;7.110;2024-02-26T11:33:00;8.93;;;5.47;;
41653;SDS011;68687;52.030;7.110;2024-02-26T11:35:26;6.95;;;5.10;;
41653;SDS011;68687;52.030;7.110;2024-02-26T11:37:54;8.38;;;5.63;;
41653;SDS011;68687;52.030;7.110;2024-02-26T11:40:21;8.80;;;5.32;;
41653;SDS011;68687;52.030;7.110;2024-02-26T11:42:50;8.00;;;5.28;;
41653;SDS011;68687;52.030;7.110;2024-02-26T11:48:13;9.35;;;5.10;;
41653;SDS011;68687;52.030;7.110;2024-02-26T11:50:40;9.48;;;6.18;;
41653;SDS011;68687;52.030;7.110;2024-02-26T11:53:23;8.73;;;5.93;;
41653;SDS011;68687;52.030;7.110;2024-02-26T11:59:36;9.55;;;5.72;;
41653;SDS011;68687;52.030;7.110;2024-02-26T12:01:58;10.73;;;7.00;;
41653;SDS011;68687;52.030;7.110;2024-02-26T12:04:32;11.40;;;6.82;;
41653;SDS011;68687;52.030;7.110;2024-02-26T12:07:00;11.25;;;6.50;;
41653;SDS011;68687;52.030;7.110;2024-02-26T12:09:37;13.00;;;6.75;;
41653;SDS011;68687;52.030;7.110;2024-02-26T12:12:07;13.40;;;7.93;;
41653;SDS011;68687;52.030;7.110;2024-02-26T12:14:34;14.77;;;9.80;;
41653;SDS011;68687;52.030;7.110;2024-02-26T12:17:00;16.25;;;9.43;;
41653;SDS011;68687;52.030;7.110;2024-02-26T12:19:29;14.70;;;8.43;;
41653;SDS011;68687;52.030;7.110;2024-02-26T12:21:55;12.52;;;7.40;;
41653;SDS011;68687;52.030;7.110;2024-02-26T12:24:28;13.07;;;7.53;;
41653;SDS011;68687;52.030;7.110;2024-02-26T12:26:54;13.70;;;7.75;;
41653;SDS011;68687;52.030;7.110;2024-02-26T12:29:19;12.40;;;7.78;;
41653;SDS011;68687;52.030;7.110;2024-02-26T12:31:45;14.23;;;8.52;;
41653;SDS011;68687;52.030;7.110;2024-02-26T12:34:10;15.13;;;9.15;;
41653;SDS011;68687;52.030;7.110;2024-02-26T12:36:42;15.93;;;9.10;;
41653;SDS011;68687;52.030;7.110;2024-02-26T12:39:07;24.67;;;11.35;;
41653;SDS011;68687;52.030;7.110;2024-02-26T12:41:33;14.30;;;8.48;;
41653;SDS011;68687;52.030;7.110;2024-02-26T12:43:59;18.00;;;9.77;;
41653;SDS011;68687;52.030;7.110;2024-02-26T12:46:25;14.50;;;8.88;;
41653;SDS011;68687;52.030;7.110;2024-02-26T12:48:50;15.40;;;8.57;;
41653;SDS011;68687;52.030;7.110;2024-02-26T12:51:16;20.88;;;11.98;;
41653;SDS011;68687;52.030;7.110;2024-02-26T12:53:42;15.82;;;9.30;;
41653;SDS011;68687;52.030;7.110;2024-02-26T12:56:09;23.85;;;11.88;;
41653;SDS011;68687;52.030;7.110;2024-02-26T12:58:37;16.40;;;8.63;;
41653;SDS011;68687;52.030;7.110;2024-02-26T13:01:04;20.40;;;11.50;;
41653;SDS011;68687;52.030;7.110;2024-02-26T13:03:31;16.35;;;8.52;;
41653;SDS011;68687;52.030;7.110;2024-02-26T13:06:00;17.27;;;9.25;;
41653;SDS011;68687;52.030;7.110;2024-02-26T13:08:27;15.82;;;9.40;;
41653;SDS011;68687;52.030;7.110;2024-02-26T13:10:52;16.98;;;9.55;;
41653;SDS011;68687;52.030;7.110;2024-02-26T13:13:18;15.23;;;8.93;;
41653;SDS011;68687;52.030;7.110;2024-02-26T13:15:44;22.08;;;9.65;;
41653;SDS011;68687;52.030;7.110;2024-02-26T13:18:10;15.77;;;8.80;;
41653;SDS011;68687;52.030;7.110;2024-02-26T13:20:37;16.33;;;9.35;;
41653;SDS011;68687;52.030;7.110;2024-02-26T13:23:09;15.07;;;8.43;;
41653;SDS011;68687;52.030;7.110;2024-02-26T13:25:37;14.00;;;8.93;;
41653;SDS011;68687;52.030;7.110;2024-02-26T13:28:14;15.57;;;8.65;;
41653;SDS011;68687;52.030;7.110;2024-02-26T13:30:52;15.32;;;8.82;;
41653;SDS011;68687;52.030;7.110;2024-02-26T13:33:21;15.15;;;8.10;;
41653;SDS011;68687;52.030;7.110;2024-02-26T13:35:47;16.10;;;8.80;;
41653;SDS011;68687;52.030;7.110;2024-02-26T13:38:12;14.10;;;8.85;;
41653;SDS011;68687;52.030;7.110;2024-02-26T13:40:38;16.77;;;9.52;;
41653;SDS011;68687;52.030;7.110;2024-02-26T13:43:04;19.50;;;9.18;;
41653;SDS011;68687;52.030;7.110;2024-02-26T13:45:30;13.95;;;8.73;;
41653;SDS011;68687;52.030;7.110;2024-02-26T13:47:59;14.98;;;9.45;;
41653;SDS011;68687;52.030;7.110;2024-02-26T13:50:27;17.67;;;8.40;;
41653;SDS011;68687;52.030;7.110;2024-02-26T13:52:55;15.00;;;9.00;;
41653;SDS011;68687;52.030;7.110;2024-02-26T13:55:22;16.42;;;9.15;;
41653;SDS011;68687;52.030;7.110;2024-02-26T13:57:50;16.25;;;8.30;;
41653;SDS011;68687;52.030;7.110;2024-02-26T14:00:18;13.88;;;8.75;;
41653;SDS011;68687;52.030;7.110;2024-02-26T14:02:44;13.40;;;8.52;;
41653;SDS011;68687;52.030;7.110;2024-02-26T14:05:09;14.50;;;9.20;;
41653;SDS011;68687;52.030;7.110;2024-02-26T14:07:35;14.73;;;8.82;;
41653;SDS011;68687;52.030;7.110;2024-02-26T14:10:00;17.38;;;9.00;;
41653;SDS011;68687;52.030;7.110;2024-02-26T14:12:25;14.23;;;8.00;;
41653;SDS011;68687;52.030;7.110;2024-02-26T14:14:51;15.73;;;8.88;;
41653;SDS011;68687;52.030;7.110;2024-02-26T14:17:19;13.15;;;8.63;;
41653;SDS011;68687;52.030;7.110;2024-02-26T14:19:44;16.10;;;8.85;;
41653;SDS011;68687;52.030;7.110;2024-02-26T14:22:13;13.32;;;8.48;;
41653;SDS011;68687;52.030;7.110;2024-02-26T14:24:38;14.30;;;8.77;;
41653;SDS011;68687;52.030;7.110;2024-02-26T14:27:04;12.65;;;8.32;;
41653;SDS011;68687;52.030;7.110;2024-02-26T14:29:31;13.77;;;8.25;;
41653;SDS011;68687;52.030;7.110;2024-02-26T14:31:56;16.80;;;8.73;;
41653;SDS011;68687;52.030;7.110;2024-02-26T14:34:22;15.63;;;8.50;;
41653;SDS011;68687;52.030;7.110;2024-02-26T14:36:47;13.90;;;8.60;;
41653;SDS011;68687;52.030;7.110;2024-02-26T14:39:12;17.17;;;9.20;;
41653;SDS011;68687;52.030;7.110;2024-02-26T14:41:38;14.30;;;8.95;;
41653;SDS011;68687;52.030;7.110;2024-02-26T14:44:07;13.75;;;8.40;;
41653;SDS011;68687;52.030;7.110;2024-02-26T14:46:33;13.90;;;8.63;;
41653;SDS011;68687;52.030;7.110;2024-02-26T14:48:58;15.10;;;8.75;;
41653;SDS011;68687;52.030;7.110;2024-02-26T14:51:30;13.77;;;8.77;;
41653;SDS011;68687;52.030;7.110;2024-02-26T14:53:55;14.48;;;8.02;;